Terminal Aerodrome Forecast
Issued by NWS Billings, MT

Home | Current Version | Previous Version | Graphics & Text | Print | Product List | Glossary On
Versions: 1 2 3 4 5 6 7 8 9 10 11 12 13 14 15 16 17 18 19 20 21 22 23 24 25 26 27 28 29 30 31 32 33 34 35 36
000
FTUS45 KBYZ 221600 AAB
TAFMLS
TAF AMD
KMLS 221600Z 2216/2312 VRB06KT 3SM -SN OVC030
      TEMPO 2216/2218 31011KT 1SM -SN BR SCT008 OVC014
     FM222000 03010KT 5SM -SHSN OVC025
     FM230100 07010KT P6SM SCT030 BKN070=

USA.gov is the U.S. government's official web portal to all federal, state and local government web resources and services.